createdAt,value
2023-03-02T00:38:17.894Z,24.11
2023-03-02T00:39:17.848Z,23.88
2023-03-02T00:40:17.976Z,22.64
2023-03-02T00:41:18.113Z,24.43
2023-03-02T00:42:18.275Z,24.23
2023-03-02T00:43:18.505Z,22.71
2023-03-02T00:44:18.618Z,23.79
2023-03-02T00:45:18.774Z,22.42
2023-03-02T00:46:19.029Z,23.83
2023-03-02T00:47:19.216Z,24.56
2023-03-02T00:48:19.403Z,24.02
2023-03-02T00:49:19.529Z,22.65
2023-03-02T00:50:19.651Z,23.51
2023-03-02T00:51:19.788Z,24.56
2023-03-02T00:52:19.920Z,22.74
2023-03-02T00:53:20.042Z,23.57
2023-03-02T00:54:20.175Z,23.39
2023-03-02T00:55:20.316Z,24.34
2023-03-02T00:56:20.442Z,23.19
2023-03-02T00:57:20.565Z,22.26
2023-03-02T00:58:20.688Z,22.96
2023-03-02T00:59:20.813Z,24.85
2023-03-02T01:00:20.931Z,25.43
2023-03-02T01:01:21.080Z,23.28
2023-03-02T01:02:21.273Z,23.71
2023-03-02T01:03:21.400Z,24.18
2023-03-02T01:04:21.463Z,24.22
2023-03-02T01:05:21.621Z,23.30
2023-03-02T01:06:21.746Z,24.66
2023-03-02T01:07:21.875Z,23.56
2023-03-02T01:08:22.017Z,23.29
2023-03-02T01:09:22.161Z,23.33
2023-03-02T01:10:22.315Z,22.91
2023-03-02T01:11:22.433Z,22.29
2023-03-02T01:12:22.553Z,22.72
2023-03-02T01:13:22.711Z,23.56
2023-03-02T01:14:22.809Z,24.86
2023-03-02T01:15:22.951Z,24.45
2023-03-02T01:16:23.095Z,23.77
2023-03-02T01:17:23.192Z,24.36
2023-03-02T01:18:23.329Z,25.73
2023-03-02T01:19:23.453Z,24.03
2023-03-02T01:20:23.593Z,22.87
2023-03-02T01:21:23.727Z,24.72
2023-03-02T01:22:23.862Z,25.24
2023-03-02T01:23:23.987Z,24.45
2023-03-02T01:24:24.110Z,24.25
2023-03-02T01:25:24.251Z,24.21
2023-03-02T01:26:24.379Z,23.86
2023-03-02T01:27:24.510Z,24.15
2023-03-02T01:28:24.649Z,23.64
2023-03-02T01:29:24.807Z,24.47
2023-03-02T01:30:24.978Z,23.52
2023-03-02T01:31:25.219Z,23.77
2023-03-02T01:32:25.395Z,23.63
2023-03-02T01:33:25.596Z,24.42
2023-03-02T01:34:25.801Z,24.38
2023-03-02T01:36:26.214Z,23.35
2023-03-02T01:37:26.424Z,23.43
2023-03-02T01:38:26.658Z,24.19
2023-03-02T01:39:26.848Z,24.07
2023-03-02T01:40:27.077Z,24.88
2023-03-02T01:41:27.349Z,23.39
2023-03-02T01:42:27.487Z,23.09
2023-03-02T01:43:27.686Z,23.83
2023-03-02T01:44:27.888Z,23.30
2023-03-02T01:45:28.255Z,23.22
2023-03-02T01:46:28.471Z,22.11
2023-03-02T01:47:28.750Z,22.74
2023-03-02T01:48:29.014Z,22.02
2023-03-02T01:49:29.250Z,22.34
2023-03-02T01:50:29.416Z,23.61
2023-03-02T01:51:29.586Z,20.74
2023-03-02T01:52:29.802Z,22.50
2023-03-02T01:54:30.373Z,21.62
2023-03-02T01:55:30.611Z,21.99
2023-03-02T01:56:31.331Z,22.24
2023-03-02T01:57:31.031Z,23.75
2023-03-02T01:58:31.160Z,23.45
2023-03-02T01:59:31.297Z,24.07
2023-03-02T02:00:31.428Z,27.00
2023-03-02T02:02:31.681Z,28.82
2023-03-02T02:54:07.853Z,17.52
2023-03-02T02:55:08.008Z,17.94
2023-03-02T02:56:08.218Z,19.87
2023-03-02T02:57:08.406Z,18.46
2023-03-02T02:58:08.637Z,20.14
2023-03-02T02:59:08.867Z,20.22
2023-03-02T03:00:09.087Z,19.69
2023-03-02T03:49:17.791Z,20.10
2023-03-02T04:42:27.893Z,16.30
2023-03-02T04:43:28.101Z,16.26
2023-03-02T04:44:28.322Z,18.23
2023-03-02T04:45:28.559Z,18.59
2023-03-02T04:46:28.860Z,17.30
2023-03-02T04:47:28.859Z,16.65
2023-03-02T04:48:29.123Z,17.10
2023-03-02T04:49:29.326Z,16.19
2023-03-02T04:50:29.533Z,15.71
2023-03-02T04:51:29.727Z,16.57
2023-03-02T04:52:29.928Z,16.75
2023-03-02T04:53:30.133Z,18.68
2023-03-02T04:54:30.360Z,17.94
2023-03-02T04:55:30.573Z,17.33
2023-03-02T04:56:31.110Z,17.14
2023-03-02T04:57:30.980Z,16.58
2023-03-02T04:58:30.765Z,17.44
2023-03-02T04:59:30.771Z,18.65
2023-03-02T05:00:33.274Z,17.02
2023-03-02T05:01:30.780Z,19.41
2023-03-02T05:02:30.814Z,18.44
2023-03-02T05:31:30.278Z,19.26
2023-03-02T05:33:30.072Z,19.19
2023-03-02T05:34:30.053Z,19.03
2023-03-02T05:35:30.051Z,17.50
2023-03-02T05:36:30.011Z,17.40
2023-03-02T05:37:29.981Z,16.77
2023-03-02T05:38:29.974Z,16.27
2023-03-02T05:39:30.673Z,17.13
2023-03-02T05:40:30.016Z,16.98
2023-03-02T05:41:30.037Z,15.94
2023-03-02T05:42:30.024Z,16.14
2023-03-02T05:43:30.034Z,15.73
2023-03-02T05:44:30.035Z,14.29
2023-03-02T05:45:30.049Z,15.55
2023-03-02T05:46:30.161Z,15.65
2023-03-02T05:47:30.089Z,15.82
2023-03-02T05:48:30.113Z,15.74
2023-03-02T05:49:30.127Z,14.67
2023-03-02T05:50:30.144Z,15.65
2023-03-02T05:51:30.155Z,15.46
2023-03-02T05:52:30.217Z,16.22
2023-03-02T05:53:30.320Z,17.40
2023-03-02T05:54:30.212Z,15.93
2023-03-02T05:55:30.223Z,18.74
2023-03-02T05:56:30.470Z,17.17
2023-03-02T05:57:30.218Z,17.53
2023-03-02T05:58:30.214Z,16.59
2023-03-02T05:59:30.204Z,15.39
2023-03-02T06:00:30.201Z,16.48
2023-03-02T06:01:30.221Z,16.80
2023-03-02T06:02:30.184Z,15.81
2023-03-02T06:03:30.218Z,17.47
2023-03-02T06:04:30.120Z,17.89
2023-03-02T06:05:30.178Z,17.80
2023-03-02T06:35:30.935Z,19.31
2023-03-02T08:39:37.877Z,22.06
2023-03-02T08:40:38.233Z,21.68
2023-03-02T08:41:38.312Z,20.80
2023-03-02T08:42:38.580Z,20.94
2023-03-02T08:43:38.688Z,18.92
2023-03-02T08:44:38.924Z,20.25
2023-03-02T08:45:39.063Z,21.59
2023-03-02T08:46:39.219Z,19.40
2023-03-02T08:47:39.408Z,18.92
2023-03-02T08:48:39.606Z,19.30
2023-03-02T08:49:40.193Z,18.97
2023-03-02T08:50:39.756Z,19.23
2023-03-02T08:51:39.720Z,19.05
2023-03-02T08:52:39.726Z,18.42
2023-03-02T08:53:39.676Z,19.68
2023-03-02T08:54:39.701Z,18.49
2023-03-02T08:55:39.634Z,19.55
2023-03-02T08:56:39.609Z,17.55
2023-03-02T08:57:39.578Z,19.12
2023-03-02T08:58:39.566Z,17.62
2023-03-02T08:59:39.561Z,17.60
2023-03-02T09:01:39.478Z,17.59
2023-03-02T09:02:39.364Z,18.91
2023-03-02T09:03:39.298Z,17.28
2023-03-02T09:04:39.367Z,18.44
2023-03-02T09:05:39.161Z,19.42
2023-03-02T09:06:39.088Z,20.12
2023-03-02T09:07:39.018Z,19.65
2023-03-02T09:08:38.994Z,18.35
2023-03-02T09:09:38.881Z,18.31
2023-03-02T09:10:38.820Z,17.98
2023-03-02T09:11:38.736Z,17.64
2023-03-02T09:12:38.710Z,17.12
2023-03-02T09:13:38.587Z,18.10
2023-03-02T09:14:38.564Z,16.20
2023-03-02T09:15:38.449Z,16.96
2023-03-02T09:16:38.588Z,17.55
2023-03-02T09:17:38.733Z,17.13
2023-03-02T09:18:38.871Z,17.79
2023-03-02T09:19:39.077Z,17.41
2023-03-02T09:20:39.280Z,18.26
2023-03-02T09:21:39.452Z,16.70
2023-03-02T09:22:39.654Z,18.01
2023-03-02T09:23:39.847Z,16.60
2023-03-02T09:24:40.169Z,16.47
2023-03-02T09:25:40.322Z,16.25
2023-03-02T09:27:40.426Z,16.17
2023-03-02T09:28:40.380Z,15.90
2023-03-02T09:29:40.343Z,16.78
2023-03-02T09:31:40.273Z,15.81
2023-03-02T09:32:40.377Z,15.94
2023-03-02T09:34:40.101Z,16.62
2023-03-02T09:35:40.035Z,16.26
2023-03-02T09:37:39.958Z,16.97
2023-03-02T09:39:39.860Z,16.31
2023-03-02T09:42:44.167Z,15.61
2023-03-02T09:58:38.090Z,13.50
2023-03-02T09:59:37.984Z,14.24
2023-03-02T10:00:37.923Z,14.19
2023-03-02T10:01:37.883Z,13.61
2023-03-02T10:02:37.854Z,13.33
2023-03-02T10:04:37.800Z,14.44
2023-03-02T10:13:38.732Z,11.76
2023-03-02T10:25:37.744Z,11.63
2023-03-02T10:28:38.716Z,12.69
2023-03-02T10:39:39.228Z,9.84
2023-03-02T12:03:38.266Z,5.13
2023-03-02T12:13:37.934Z,4.20
2023-03-02T12:14:37.988Z,4.08
2023-03-02T12:15:38.187Z,4.05
2023-03-02T12:16:38.344Z,3.80
2023-03-02T12:17:38.444Z,4.38
2023-03-02T12:18:38.532Z,4.18
2023-03-02T12:19:38.726Z,4.14
2023-03-02T12:20:38.755Z,3.83
2023-03-02T12:21:38.944Z,3.16
2023-03-02T12:22:39.074Z,3.65
2023-03-02T12:23:39.177Z,3.41
2023-03-02T12:24:39.303Z,3.89
2023-03-02T12:25:39.392Z,3.33
2023-03-02T12:26:39.583Z,3.79
2023-03-02T12:27:39.713Z,4.13
2023-03-02T12:28:39.769Z,3.25
2023-03-02T12:29:39.948Z,3.58
2023-03-02T12:30:40.136Z,3.64
2023-03-02T12:31:40.194Z,2.86
2023-03-02T12:32:40.329Z,2.80
2023-03-02T12:33:40.435Z,2.51
2023-03-02T12:34:40.507Z,2.85
2023-03-02T12:35:40.698Z,2.79
2023-03-02T12:36:40.848Z,2.67
2023-03-02T12:37:41.017Z,2.70
2023-03-02T12:38:41.167Z,2.70
2023-03-02T12:39:41.280Z,2.75
2023-03-02T12:40:41.422Z,2.47
2023-03-02T12:41:41.509Z,2.36
2023-03-02T12:42:41.660Z,2.75
2023-03-02T12:43:41.832Z,2.85
2023-03-02T12:44:41.931Z,2.73
2023-03-02T12:45:42.017Z,2.77
2023-03-02T12:46:42.154Z,2.36
2023-03-02T12:57:42.590Z,2.50
2023-03-02T12:58:42.397Z,2.57
2023-03-02T12:59:42.205Z,2.10
2023-03-02T13:00:42.067Z,2.41
2023-03-02T13:01:41.831Z,2.38
2023-03-02T13:02:41.693Z,2.47
2023-03-02T13:03:41.481Z,2.14
2023-03-02T13:04:41.274Z,1.98
2023-03-02T13:05:41.075Z,1.86
2023-03-02T13:06:40.896Z,1.87
2023-03-02T13:07:40.743Z,1.62
2023-03-02T13:08:41.173Z,2.03
2023-03-02T13:09:47.771Z,1.83
2023-03-02T13:10:41.232Z,2.19
2023-03-02T13:11:40.023Z,2.19
2023-03-02T13:12:39.811Z,1.86
2023-03-02T13:13:39.623Z,2.09
2023-03-02T13:14:39.412Z,2.14
2023-03-02T13:15:39.202Z,1.92
2023-03-02T13:16:39.016Z,2.65
2023-03-02T13:17:38.806Z,2.04
2023-03-02T13:18:38.601Z,2.39
2023-03-02T13:19:38.426Z,2.38
2023-03-02T13:20:38.289Z,2.51
2023-03-02T13:21:38.159Z,2.22
2023-03-02T13:22:38.076Z,2.16
2023-03-02T13:23:37.865Z,2.40
2023-03-02T13:48:37.794Z,2.50
2023-03-02T13:49:37.946Z,2.59
2023-03-02T13:50:38.052Z,2.79
2023-03-02T13:51:38.163Z,2.67
2023-03-02T13:52:38.263Z,1.79
2023-03-02T13:53:38.476Z,2.23
2023-03-02T13:54:38.504Z,2.63
2023-03-02T13:55:38.688Z,2.38
2023-03-02T13:56:38.806Z,1.79
2023-03-02T13:57:38.954Z,2.53
2023-03-02T13:58:39.099Z,2.10
2023-03-02T13:59:39.137Z,2.01
2023-03-02T14:00:39.232Z,2.05
2023-03-02T14:01:39.427Z,2.42
2023-03-02T14:02:39.491Z,2.28
2023-03-02T14:03:39.546Z,2.04
2023-03-02T14:04:39.757Z,2.25
2023-03-02T14:05:39.848Z,1.93
2023-03-02T14:06:39.888Z,1.95
2023-03-02T14:07:39.973Z,2.31
2023-03-02T14:08:40.153Z,2.26
2023-03-02T14:09:40.205Z,2.25
2023-03-02T14:10:40.392Z,2.20
2023-03-02T15:04:47.747Z,1.87
2023-03-02T15:06:48.035Z,1.67
2023-03-02T16:05:50.382Z,3.00
2023-03-02T17:00:57.913Z,1.97
2023-03-02T17:01:57.963Z,1.72
2023-03-02T17:02:58.192Z,2.26
2023-03-02T17:03:58.386Z,2.41
2023-03-02T17:04:58.576Z,2.00
2023-03-02T17:05:58.700Z,3.26
2023-03-02T17:07:00.709Z,3.34
2023-03-02T17:07:58.827Z,4.33
2023-03-02T17:08:58.738Z,3.34
2023-03-02T17:09:58.647Z,3.46
2023-03-02T17:10:58.566Z,3.52
2023-03-02T17:11:58.745Z,3.46
2023-03-02T17:12:58.965Z,4.03
2023-03-02T17:13:59.121Z,3.97
2023-03-02T17:14:59.287Z,4.42
2023-03-02T17:15:59.467Z,4.19
2023-03-02T17:16:59.591Z,3.24
2023-03-02T17:17:59.843Z,3.50
2023-03-02T17:19:00.317Z,4.15
2023-03-02T17:19:59.867Z,4.11
2023-03-02T17:20:59.820Z,3.99
2023-03-02T17:21:59.731Z,4.00
2023-03-02T17:22:59.650Z,4.69
2023-03-02T17:23:59.863Z,4.22
2023-03-02T17:25:00.037Z,4.10
2023-03-02T17:26:00.218Z,4.57
2023-03-02T17:27:00.407Z,5.59
2023-03-02T17:28:00.510Z,4.94
2023-03-02T17:29:00.668Z,4.76
2023-03-02T17:30:01.219Z,4.72
2023-03-02T17:31:02.988Z,5.21
2023-03-02T17:32:01.010Z,4.68
2023-03-02T17:33:00.828Z,5.09
2023-03-02T17:34:00.703Z,5.26
2023-03-02T17:35:00.567Z,5.31
2023-03-02T17:36:00.660Z,5.85
2023-03-02T17:37:00.919Z,5.31
2023-03-02T17:38:01.065Z,5.16
2023-03-02T17:39:01.130Z,5.90
2023-03-02T17:40:01.314Z,7.38
2023-03-02T17:41:01.425Z,6.78
2023-03-02T17:42:01.617Z,7.59
2023-03-02T17:43:01.758Z,7.22
2023-03-02T17:44:01.932Z,6.30
2023-03-02T17:45:02.057Z,6.04
2023-03-02T17:46:02.307Z,5.97
2023-03-02T17:47:02.415Z,6.43
2023-03-02T19:09:02.387Z,4.55
2023-03-02T19:10:02.273Z,5.22
2023-03-02T19:11:02.198Z,4.84
2023-03-02T19:12:02.086Z,4.57
2023-03-02T19:13:01.986Z,5.27
2023-03-02T19:14:01.915Z,5.33
2023-03-02T19:15:01.794Z,5.14
2023-03-02T19:16:01.737Z,5.22
2023-03-02T19:17:01.604Z,5.08
2023-03-02T19:18:01.507Z,5.24
2023-03-02T19:19:01.464Z,5.06
2023-03-02T19:20:01.419Z,5.35
2023-03-02T19:21:01.399Z,5.15
2023-03-02T19:22:01.329Z,5.03
2023-03-02T19:23:01.293Z,4.52
2023-03-02T19:24:01.252Z,5.37
2023-03-02T19:25:01.224Z,5.45
2023-03-02T19:26:01.188Z,5.57
2023-03-02T19:27:01.280Z,5.87
2023-03-02T19:28:01.362Z,5.54
2023-03-02T19:29:01.559Z,5.15
2023-03-02T19:30:01.666Z,5.74
2023-03-02T19:31:01.789Z,6.30
2023-03-02T19:32:01.975Z,6.13
2023-03-02T19:33:02.045Z,5.87
2023-03-02T19:34:02.156Z,5.77
2023-03-02T19:35:02.255Z,4.91
2023-03-02T19:36:02.397Z,4.68
2023-03-02T19:37:02.458Z,5.14
2023-03-02T19:38:02.556Z,4.57
2023-03-02T19:39:02.681Z,4.64
2023-03-02T19:40:02.795Z,4.66
2023-03-02T19:41:02.918Z,4.80
2023-03-02T19:42:03.043Z,5.14
2023-03-02T19:43:03.192Z,4.87
2023-03-02T19:44:03.346Z,4.53
2023-03-02T19:45:03.498Z,4.30
2023-03-02T19:46:03.663Z,4.88
2023-03-02T19:47:03.769Z,4.72
2023-03-02T19:48:03.926Z,4.54
2023-03-02T19:49:04.060Z,3.96
2023-03-02T19:50:04.212Z,4.46
2023-03-02T19:51:04.353Z,4.68
2023-03-02T19:52:04.518Z,5.38
2023-03-02T19:53:04.659Z,5.77
2023-03-02T19:54:04.841Z,5.62
2023-03-02T19:55:04.975Z,6.50
2023-03-02T19:56:05.144Z,6.08
2023-03-02T19:57:05.310Z,6.69
2023-03-02T19:58:05.469Z,7.07
2023-03-02T19:59:05.610Z,6.09
2023-03-02T20:00:05.775Z,6.57
2023-03-02T20:01:05.832Z,5.69
2023-03-02T20:02:06.030Z,4.45
2023-03-02T20:03:06.839Z,4.38
2023-03-02T20:04:06.150Z,4.47
2023-03-02T20:05:06.096Z,5.18
2023-03-02T20:06:06.052Z,6.07
2023-03-02T20:07:06.025Z,5.97
2023-03-02T20:08:05.978Z,4.86
2023-03-02T20:09:05.957Z,6.07
2023-03-02T20:10:05.892Z,5.43
2023-03-02T20:11:05.869Z,6.01
2023-03-02T20:12:05.818Z,6.07
2023-03-02T20:13:05.766Z,5.48
2023-03-02T20:14:05.727Z,5.11
2023-03-02T20:15:05.690Z,4.68
2023-03-02T20:16:05.658Z,4.48
2023-03-02T20:17:05.607Z,5.07
2023-03-02T20:18:05.592Z,5.16
2023-03-02T20:19:05.561Z,5.49
2023-03-02T20:20:05.531Z,5.07
2023-03-02T20:21:05.510Z,4.58
2023-03-02T20:22:05.474Z,4.27
2023-03-02T20:23:05.416Z,3.76
2023-03-02T20:24:05.380Z,4.06
2023-03-02T20:25:05.336Z,4.05
2023-03-02T20:26:05.322Z,4.14
2023-03-02T20:27:05.262Z,3.91
2023-03-02T20:28:05.224Z,4.61
2023-03-02T20:29:05.212Z,4.24
2023-03-02T20:30:05.162Z,4.79
2023-03-02T20:31:05.233Z,4.05
2023-03-02T20:32:05.197Z,4.96
2023-03-02T20:33:05.097Z,4.30
2023-03-02T20:34:05.078Z,4.33
2023-03-02T20:35:05.047Z,4.92
2023-03-02T20:36:05.019Z,4.18
2023-03-02T20:37:04.982Z,5.09
2023-03-02T21:50:07.831Z,9.49
2023-03-02T21:51:07.948Z,8.71
2023-03-02T21:52:08.173Z,8.55
2023-03-02T21:53:08.276Z,8.52
2023-03-02T21:54:08.500Z,9.21
2023-03-02T21:55:08.711Z,8.41
2023-03-02T21:56:08.823Z,8.00
2023-03-02T21:57:09.046Z,7.58
2023-03-02T21:58:09.144Z,7.54
2023-03-02T21:59:09.378Z,6.26
2023-03-02T22:00:09.479Z,7.06
2023-03-02T22:01:09.581Z,7.02
2023-03-02T22:02:09.831Z,7.26
2023-03-02T22:03:09.938Z,6.52
2023-03-02T22:04:10.070Z,6.28
2023-03-02T22:05:10.319Z,5.91
2023-03-02T22:06:10.441Z,6.49
2023-03-02T22:07:10.670Z,5.99
2023-03-02T22:08:10.776Z,5.84
2023-03-02T22:09:11.013Z,6.68
2023-03-02T22:10:11.223Z,5.30
2023-03-02T22:11:11.310Z,5.43
2023-03-02T22:54:17.860Z,5.17
2023-03-02T22:55:17.987Z,5.15
2023-03-02T22:56:20.081Z,5.68
2023-03-02T22:57:18.289Z,5.45
2023-03-02T22:58:18.103Z,6.07
2023-03-02T22:59:18.047Z,5.96
2023-03-02T23:00:18.010Z,7.51
2023-03-02T23:01:17.965Z,6.99
2023-03-02T23:02:17.907Z,6.78
2023-03-02T23:03:17.852Z,6.68
2023-03-02T23:04:17.840Z,5.88
2023-03-02T23:05:17.762Z,5.11
2023-03-02T23:11:17.767Z,6.05
2023-03-02T23:12:17.998Z,7.38
2023-03-02T23:13:18.146Z,7.51
2023-03-02T23:14:18.416Z,6.64
2023-03-02T23:15:18.578Z,6.12
2023-03-02T23:16:18.885Z,6.68
2023-03-02T23:17:18.987Z,5.45
2023-03-02T23:18:19.175Z,5.60
2023-03-02T23:19:19.367Z,5.63
2023-03-02T23:20:19.621Z,5.09
2023-03-02T23:21:19.812Z,4.92
2023-03-02T23:22:20.110Z,4.90
2023-03-02T23:23:20.275Z,4.80
2023-03-02T23:24:20.424Z,4.14
2023-03-02T23:25:20.614Z,4.40
2023-03-02T23:26:20.817Z,4.29
2023-03-02T23:27:20.975Z,3.50
2023-03-02T23:28:21.164Z,3.19
2023-03-02T23:29:21.425Z,3.85
2023-03-02T23:30:21.597Z,4.76
2023-03-02T23:31:21.848Z,3.96
2023-03-02T23:32:22.078Z,3.82
2023-03-02T23:33:22.200Z,3.50
2023-03-02T23:34:22.393Z,4.51
2023-03-02T23:35:22.593Z,5.01
2023-03-02T23:36:22.777Z,4.96
2023-03-02T23:37:22.944Z,4.66
2023-03-02T23:38:23.139Z,4.47
2023-03-02T23:39:23.311Z,4.50
2023-03-02T23:40:23.521Z,4.44
2023-03-02T23:41:23.751Z,4.28
2023-03-02T23:42:23.908Z,4.17
2023-03-02T23:43:24.055Z,4.61
2023-03-02T23:44:24.236Z,4.25
2023-03-02T23:45:24.401Z,4.17
2023-03-02T23:46:24.583Z,4.52
2023-03-02T23:47:24.755Z,4.22
2023-03-02T23:48:24.920Z,4.18
2023-03-02T23:49:25.101Z,3.60
2023-03-02T23:50:25.291Z,4.58
2023-03-02T23:51:25.508Z,4.03
2023-03-02T23:52:25.669Z,3.46
2023-03-02T23:53:25.906Z,3.25
2023-03-02T23:54:26.095Z,3.29
2023-03-02T23:55:26.297Z,3.42
2023-03-02T23:56:26.529Z,3.04
2023-03-02T23:57:26.718Z,3.40
2023-03-02T23:58:26.888Z,3.68
2023-03-02T23:59:27.142Z,4.82
